sensor_id;sensor_type;location;lat;lon;timestamp;P1;durP1;ratioP1;P2;durP2;ratioP2
21432;SDS011;18592;49.708;10.900;2024-03-02T00:01:24;8.65;;;7.30;;
21432;SDS011;18592;49.708;10.900;2024-03-02T00:03:24;7.57;;;6.55;;
21432;SDS011;18592;49.708;10.900;2024-03-02T00:05:26;8.93;;;7.05;;
21432;SDS011;18592;49.708;10.900;2024-03-02T00:07:28;7.90;;;6.45;;
21432;SDS011;18592;49.708;10.900;2024-03-02T00:09:29;7.65;;;6.78;;
21432;SDS011;18592;49.708;10.900;2024-03-02T00:11:29;8.93;;;6.85;;
21432;SDS011;18592;49.708;10.900;2024-03-02T00:13:45;8.13;;;6.47;;
21432;SDS011;18592;49.708;10.900;2024-03-02T00:15:46;8.90;;;7.07;;
21432;SDS011;18592;49.708;10.900;2024-03-02T00:17:51;8.05;;;6.82;;
21432;SDS011;18592;49.708;10.900;2024-03-02T00:19:53;8.90;;;6.95;;
21432;SDS011;18592;49.708;10.900;2024-03-02T00:21:55;8.35;;;7.13;;
21432;SDS011;18592;49.708;10.900;2024-03-02T00:23:55;9.65;;;7.35;;
21432;SDS011;18592;49.708;10.900;2024-03-02T00:25:55;7.93;;;6.72;;
21432;SDS011;18592;49.708;10.900;2024-03-02T00:27:56;8.43;;;6.85;;
21432;SDS011;18592;49.708;10.900;2024-03-02T00:29:59;8.15;;;7.18;;
21432;SDS011;18592;49.708;10.900;2024-03-02T00:32:01;8.10;;;7.13;;
21432;SDS011;18592;49.708;10.900;2024-03-02T00:34:02;7.38;;;6.57;;
21432;SDS011;18592;49.708;10.900;2024-03-02T00:36:05;7.78;;;7.00;;
21432;SDS011;18592;49.708;10.900;2024-03-02T00:38:07;7.50;;;6.63;;
21432;SDS011;18592;49.708;10.900;2024-03-02T00:40:07;8.90;;;7.20;;
21432;SDS011;18592;49.708;10.900;2024-03-02T00:42:08;8.02;;;6.57;;
21432;SDS011;18592;49.708;10.900;2024-03-02T00:44:15;8.40;;;7.07;;
21432;SDS011;18592;49.708;10.900;2024-03-02T00:46:17;9.35;;;7.68;;
21432;SDS011;18592;49.708;10.900;2024-03-02T00:48:34;8.68;;;7.40;;
21432;SDS011;18592;49.708;10.900;2024-03-02T00:51:00;9.13;;;7.18;;
21432;SDS011;18592;49.708;10.900;2024-03-02T00:53:15;8.35;;;6.70;;
21432;SDS011;18592;49.708;10.900;2024-03-02T00:55:35;7.70;;;6.82;;
21432;SDS011;18592;49.708;10.900;2024-03-02T00:57:52;7.80;;;7.00;;
21432;SDS011;18592;49.708;10.900;2024-03-02T00:59:58;8.65;;;7.15;;
21432;SDS011;18592;49.708;10.900;2024-03-02T01:02:00;8.15;;;7.07;;
21432;SDS011;18592;49.708;10.900;2024-03-02T01:04:02;8.48;;;7.43;;
21432;SDS011;18592;49.708;10.900;2024-03-02T01:06:16;8.63;;;6.95;;
21432;SDS011;18592;49.708;10.900;2024-03-02T01:08:30;9.25;;;7.75;;
21432;SDS011;18592;49.708;10.900;2024-03-02T01:10:31;9.98;;;7.03;;
21432;SDS011;18592;49.708;10.900;2024-03-02T01:12:47;8.55;;;7.40;;
21432;SDS011;18592;49.708;10.900;2024-03-02T01:14:48;8.30;;;7.00;;
21432;SDS011;18592;49.708;10.900;2024-03-02T01:16:50;7.53;;;6.72;;
21432;SDS011;18592;49.708;10.900;2024-03-02T01:18:51;8.32;;;6.88;;
21432;SDS011;18592;49.708;10.900;2024-03-02T01:20:56;8.13;;;7.05;;
21432;SDS011;18592;49.708;10.900;2024-03-02T01:22:58;8.05;;;7.00;;
21432;SDS011;18592;49.708;10.900;2024-03-02T01:24:59;8.35;;;7.00;;
21432;SDS011;18592;49.708;10.900;2024-03-02T01:27:01;8.32;;;7.10;;
21432;SDS011;18592;49.708;10.900;2024-03-02T01:29:02;7.97;;;6.82;;
21432;SDS011;18592;49.708;10.900;2024-03-02T01:31:18;8.27;;;7.05;;
21432;SDS011;18592;49.708;10.900;2024-03-02T01:33:33;10.52;;;7.75;;
21432;SDS011;18592;49.708;10.900;2024-03-02T01:35:48;8.90;;;7.20;;
21432;SDS011;18592;49.708;10.900;2024-03-02T01:38:04;8.65;;;7.30;;
21432;SDS011;18592;49.708;10.900;2024-03-02T01:40:22;9.85;;;7.60;;
21432;SDS011;18592;49.708;10.900;2024-03-02T01:42:31;10.25;;;7.50;;
21432;SDS011;18592;49.708;10.900;2024-03-02T01:44:44;8.95;;;7.55;;
21432;SDS011;18592;49.708;10.900;2024-03-02T01:57:38;7.95;;;6.75;;
21432;SDS011;18592;49.708;10.900;2024-03-02T01:59:38;8.15;;;6.78;;
21432;SDS011;18592;49.708;10.900;2024-03-02T02:01:39;8.10;;;6.95;;
21432;SDS011;18592;49.708;10.900;2024-03-02T02:03:39;9.13;;;6.85;;
21432;SDS011;18592;49.708;10.900;2024-03-02T02:05:41;8.75;;;6.85;;
21432;SDS011;18592;49.708;10.900;2024-03-02T02:07:42;8.20;;;7.30;;
21432;SDS011;18592;49.708;10.900;2024-03-02T02:09:43;7.65;;;6.80;;
21432;SDS011;18592;49.708;10.900;2024-03-02T02:11:45;8.63;;;7.22;;
21432;SDS011;18592;49.708;10.900;2024-03-02T02:13:49;9.75;;;7.70;;
21432;SDS011;18592;49.708;10.900;2024-03-02T02:15:50;9.43;;;7.57;;
21432;SDS011;18592;49.708;10.900;2024-03-02T02:17:50;8.60;;;7.25;;
21432;SDS011;18592;49.708;10.900;2024-03-02T02:19:54;7.38;;;6.45;;
21432;SDS011;18592;49.708;10.900;2024-03-02T02:21:55;8.77;;;7.25;;
21432;SDS011;18592;49.708;10.900;2024-03-02T02:23:57;8.23;;;6.72;;
21432;SDS011;18592;49.708;10.900;2024-03-02T02:25:58;7.85;;;6.65;;
21432;SDS011;18592;49.708;10.900;2024-03-02T02:27:58;9.38;;;6.88;;
21432;SDS011;18592;49.708;10.900;2024-03-02T02:29:58;8.13;;;7.13;;
21432;SDS011;18592;49.708;10.900;2024-03-02T02:32:16;7.25;;;6.53;;
21432;SDS011;18592;49.708;10.900;2024-03-02T02:34:17;8.82;;;7.10;;
21432;SDS011;18592;49.708;10.900;2024-03-02T02:36:18;8.25;;;6.47;;
21432;SDS011;18592;49.708;10.900;2024-03-02T02:38:20;7.97;;;6.75;;
21432;SDS011;18592;49.708;10.900;2024-03-02T02:40:21;8.65;;;6.97;;
21432;SDS011;18592;49.708;10.900;2024-03-02T02:42:36;8.60;;;7.40;;
21432;SDS011;18592;49.708;10.900;2024-03-02T02:44:37;9.82;;;7.15;;
21432;SDS011;18592;49.708;10.900;2024-03-02T02:46:38;9.07;;;7.10;;
21432;SDS011;18592;49.708;10.900;2024-03-02T02:48:39;8.10;;;7.05;;
21432;SDS011;18592;49.708;10.900;2024-03-02T02:50:41;8.18;;;6.70;;
21432;SDS011;18592;49.708;10.900;2024-03-02T02:52:42;9.93;;;6.95;;
21432;SDS011;18592;49.708;10.900;2024-03-02T02:54:43;9.23;;;7.18;;
21432;SDS011;18592;49.708;10.900;2024-03-02T02:56:43;8.57;;;7.55;;
21432;SDS011;18592;49.708;10.900;2024-03-02T02:58:43;10.27;;;7.93;;
21432;SDS011;18592;49.708;10.900;2024-03-02T03:00:44;7.53;;;6.47;;
21432;SDS011;18592;49.708;10.900;2024-03-02T03:02:45;8.02;;;7.05;;
21432;SDS011;18592;49.708;10.900;2024-03-02T03:04:47;8.68;;;6.75;;
21432;SDS011;18592;49.708;10.900;2024-03-02T03:06:47;8.85;;;6.50;;
21432;SDS011;18592;49.708;10.900;2024-03-02T03:08:48;8.52;;;6.85;;
21432;SDS011;18592;49.708;10.900;2024-03-02T03:10:49;7.45;;;6.35;;
21432;SDS011;18592;49.708;10.900;2024-03-02T03:12:49;9.95;;;7.28;;
21432;SDS011;18592;49.708;10.900;2024-03-02T03:14:56;8.35;;;7.00;;
21432;SDS011;18592;49.708;10.900;2024-03-02T03:16:56;8.35;;;6.80;;
21432;SDS011;18592;49.708;10.900;2024-03-02T03:18:56;8.55;;;6.78;;
21432;SDS011;18592;49.708;10.900;2024-03-02T03:20:58;8.25;;;6.35;;
21432;SDS011;18592;49.708;10.900;2024-03-02T03:23:36;8.80;;;7.45;;
21432;SDS011;18592;49.708;10.900;2024-03-02T03:25:36;10.30;;;7.35;;
21432;SDS011;18592;49.708;10.900;2024-03-02T03:27:36;7.82;;;6.72;;
21432;SDS011;18592;49.708;10.900;2024-03-02T03:29:37;7.80;;;6.85;;
21432;SDS011;18592;49.708;10.900;2024-03-02T03:31:37;8.65;;;6.95;;
21432;SDS011;18592;49.708;10.900;2024-03-02T03:33:53;9.48;;;7.78;;
21432;SDS011;18592;49.708;10.900;2024-03-02T03:35:55;10.82;;;8.95;;
21432;SDS011;18592;49.708;10.900;2024-03-02T03:37:55;11.35;;;9.05;;
21432;SDS011;18592;49.708;10.900;2024-03-02T03:39:56;11.80;;;8.90;;
21432;SDS011;18592;49.708;10.900;2024-03-02T03:41:56;10.40;;;8.55;;
21432;SDS011;18592;49.708;10.900;2024-03-02T03:43:56;10.63;;;7.90;;
21432;SDS011;18592;49.708;10.900;2024-03-02T03:45:57;8.20;;;7.05;;
21432;SDS011;18592;49.708;10.900;2024-03-02T03:48:01;9.82;;;7.80;;
21432;SDS011;18592;49.708;10.900;2024-03-02T03:50:11;11.75;;;8.60;;
21432;SDS011;18592;49.708;10.900;2024-03-02T03:52:12;10.48;;;8.73;;
21432;SDS011;18592;49.708;10.900;2024-03-02T03:54:12;12.65;;;9.55;;
21432;SDS011;18592;49.708;10.900;2024-03-02T03:56:28;11.55;;;9.07;;
21432;SDS011;18592;49.708;10.900;2024-03-02T03:58:28;11.15;;;8.40;;
21432;SDS011;18592;49.708;10.900;2024-03-02T04:00:43;10.88;;;8.70;;
21432;SDS011;18592;49.708;10.900;2024-03-02T04:02:44;10.13;;;8.15;;
21432;SDS011;18592;49.708;10.900;2024-03-02T04:04:44;7.90;;;6.88;;
21432;SDS011;18592;49.708;10.900;2024-03-02T04:06:54;9.55;;;7.72;;
21432;SDS011;18592;49.708;10.900;2024-03-02T04:08:54;8.82;;;7.20;;
21432;SDS011;18592;49.708;10.900;2024-03-02T04:10:55;9.63;;;7.38;;
21432;SDS011;18592;49.708;10.900;2024-03-02T04:13:07;8.75;;;6.82;;
21432;SDS011;18592;49.708;10.900;2024-03-02T04:15:22;8.10;;;6.60;;
21432;SDS011;18592;49.708;10.900;2024-03-02T04:17:23;8.00;;;7.05;;
21432;SDS011;18592;49.708;10.900;2024-03-02T04:19:24;7.90;;;6.60;;
21432;SDS011;18592;49.708;10.900;2024-03-02T04:21:26;8.35;;;6.43;;
21432;SDS011;18592;49.708;10.900;2024-03-02T04:23:27;7.15;;;6.20;;
21432;SDS011;18592;49.708;10.900;2024-03-02T04:25:27;7.95;;;6.35;;
21432;SDS011;18592;49.708;10.900;2024-03-02T04:27:27;9.27;;;7.40;;
21432;SDS011;18592;49.708;10.900;2024-03-02T04:29:29;8.50;;;6.97;;
21432;SDS011;18592;49.708;10.900;2024-03-02T04:31:30;9.60;;;7.22;;
21432;SDS011;18592;49.708;10.900;2024-03-02T04:33:44;8.55;;;6.80;;
21432;SDS011;18592;49.708;10.900;2024-03-02T04:35:44;8.55;;;7.18;;
21432;SDS011;18592;49.708;10.900;2024-03-02T04:37:46;7.93;;;6.78;;
21432;SDS011;18592;49.708;10.900;2024-03-02T04:39:46;10.48;;;8.45;;
21432;SDS011;18592;49.708;10.900;2024-03-02T04:41:47;10.57;;;8.15;;
21432;SDS011;18592;49.708;10.900;2024-03-02T04:43:47;8.68;;;7.38;;
21432;SDS011;18592;49.708;10.900;2024-03-02T04:45:48;8.98;;;7.50;;
21432;SDS011;18592;49.708;10.900;2024-03-02T04:47:48;9.10;;;7.10;;
21432;SDS011;18592;49.708;10.900;2024-03-02T04:49:49;8.23;;;7.03;;
21432;SDS011;18592;49.708;10.900;2024-03-02T04:51:49;7.88;;;6.68;;
21432;SDS011;18592;49.708;10.900;2024-03-02T04:53:49;8.35;;;6.13;;
21432;SDS011;18592;49.708;10.900;2024-03-02T04:55:50;6.72;;;5.95;;
21432;SDS011;18592;49.708;10.900;2024-03-02T04:58:11;7.70;;;6.32;;
21432;SDS011;18592;49.708;10.900;2024-03-02T05:00:11;7.95;;;6.70;;
21432;SDS011;18592;49.708;10.900;2024-03-02T05:02:23;7.18;;;6.13;;
21432;SDS011;18592;49.708;10.900;2024-03-02T05:04:23;8.20;;;6.75;;
21432;SDS011;18592;49.708;10.900;2024-03-02T05:06:24;7.55;;;6.20;;
21432;SDS011;18592;49.708;10.900;2024-03-02T05:08:24;7.80;;;6.28;;
21432;SDS011;18592;49.708;10.900;2024-03-02T05:21:13;7.93;;;6.20;;
21432;SDS011;18592;49.708;10.900;2024-03-02T05:23:24;7.80;;;5.93;;
21432;SDS011;18592;49.708;10.900;2024-03-02T05:25:24;6.63;;;5.60;;
21432;SDS011;18592;49.708;10.900;2024-03-02T05:27:25;7.68;;;5.78;;
21432;SDS011;18592;49.708;10.900;2024-03-02T05:29:25;8.38;;;6.07;;
21432;SDS011;18592;49.708;10.900;2024-03-02T05:31:25;8.50;;;6.13;;
21432;SDS011;18592;49.708;10.900;2024-03-02T05:33:26;6.43;;;5.65;;
21432;SDS011;18592;49.708;10.900;2024-03-02T05:35:26;7.72;;;6.38;;
21432;SDS011;18592;49.708;10.900;2024-03-02T05:37:26;6.80;;;5.75;;
21432;SDS011;18592;49.708;10.900;2024-03-02T05:39:27;6.68;;;5.55;;
21432;SDS011;18592;49.708;10.900;2024-03-02T05:41:27;6.57;;;5.55;;
21432;SDS011;18592;49.708;10.900;2024-03-02T05:43:27;7.78;;;6.35;;
21432;SDS011;18592;49.708;10.900;2024-03-02T05:45:28;7.63;;;5.95;;
21432;SDS011;18592;49.708;10.900;2024-03-02T05:47:29;8.95;;;6.97;;
21432;SDS011;18592;49.708;10.900;2024-03-02T05:49:39;8.30;;;5.80;;
21432;SDS011;18592;49.708;10.900;2024-03-02T05:51:53;8.65;;;6.25;;
21432;SDS011;18592;49.708;10.900;2024-03-02T05:53:53;7.35;;;6.00;;
21432;SDS011;18592;49.708;10.900;2024-03-02T05:55:54;6.25;;;5.45;;
21432;SDS011;18592;49.708;10.900;2024-03-02T05:58:10;6.68;;;5.85;;
21432;SDS011;18592;49.708;10.900;2024-03-02T06:00:42;7.35;;;6.10;;
21432;SDS011;18592;49.708;10.900;2024-03-02T06:02:44;7.97;;;6.38;;
21432;SDS011;18592;49.708;10.900;2024-03-02T06:04:45;6.85;;;5.80;;
21432;SDS011;18592;49.708;10.900;2024-03-02T06:06:45;7.10;;;5.65;;
21432;SDS011;18592;49.708;10.900;2024-03-02T06:08:46;8.85;;;5.85;;
21432;SDS011;18592;49.708;10.900;2024-03-02T06:10:46;7.78;;;5.75;;
21432;SDS011;18592;49.708;10.900;2024-03-02T06:12:46;10.05;;;6.88;;
21432;SDS011;18592;49.708;10.900;2024-03-02T06:14:47;9.73;;;7.30;;
21432;SDS011;18592;49.708;10.900;2024-03-02T06:16:47;10.23;;;7.40;;
21432;SDS011;18592;49.708;10.900;2024-03-02T06:18:47;8.57;;;6.93;;
21432;SDS011;18592;49.708;10.900;2024-03-02T06:20:48;9.45;;;6.80;;
21432;SDS011;18592;49.708;10.900;2024-03-02T06:22:49;7.85;;;5.88;;
21432;SDS011;18592;49.708;10.900;2024-03-02T06:24:49;8.60;;;5.90;;
21432;SDS011;18592;49.708;10.900;2024-03-02T06:26:52;7.40;;;5.57;;
21432;SDS011;18592;49.708;10.900;2024-03-02T06:28:52;7.45;;;6.25;;
21432;SDS011;18592;49.708;10.900;2024-03-02T06:30:53;8.52;;;6.15;;
21432;SDS011;18592;49.708;10.900;2024-03-02T06:32:54;7.28;;;6.15;;
21432;SDS011;18592;49.708;10.900;2024-03-02T06:34:54;8.10;;;5.45;;
21432;SDS011;18592;49.708;10.900;2024-03-02T06:36:55;8.27;;;6.15;;
21432;SDS011;18592;49.708;10.900;2024-03-02T06:38:56;6.10;;;5.22;;
21432;SDS011;18592;49.708;10.900;2024-03-02T06:40:56;9.63;;;5.82;;
21432;SDS011;18592;49.708;10.900;2024-03-02T06:42:57;7.35;;;5.65;;
21432;SDS011;18592;49.708;10.900;2024-03-02T06:44:57;7.57;;;6.15;;
21432;SDS011;18592;49.708;10.900;2024-03-02T06:46:57;8.43;;;6.25;;
21432;SDS011;18592;49.708;10.900;2024-03-02T06:48:58;10.15;;;7.32;;
21432;SDS011;18592;49.708;10.900;2024-03-02T06:50:58;8.30;;;6.45;;
21432;SDS011;18592;49.708;10.900;2024-03-02T06:52:58;7.35;;;5.65;;
21432;SDS011;18592;49.708;10.900;2024-03-02T06:54:59;6.53;;;5.25;;
21432;SDS011;18592;49.708;10.900;2024-03-02T06:57:23;6.38;;;5.30;;
21432;SDS011;18592;49.708;10.900;2024-03-02T06:59:24;7.18;;;5.70;;
21432;SDS011;18592;49.708;10.900;2024-03-02T07:01:24;8.48;;;6.03;;
21432;SDS011;18592;49.708;10.900;2024-03-02T07:03:26;9.35;;;7.18;;
21432;SDS011;18592;49.708;10.900;2024-03-02T07:05:26;11.38;;;7.90;;
21432;SDS011;18592;49.708;10.900;2024-03-02T07:07:26;9.60;;;7.35;;
21432;SDS011;18592;49.708;10.900;2024-03-02T07:09:42;7.78;;;6.43;;
21432;SDS011;18592;49.708;10.900;2024-03-02T07:11:42;8.45;;;6.50;;
21432;SDS011;18592;49.708;10.900;2024-03-02T07:13:43;10.15;;;6.60;;
21432;SDS011;18592;49.708;10.900;2024-03-02T07:15:43;8.10;;;6.07;;
21432;SDS011;18592;49.708;10.900;2024-03-02T07:18:03;8.07;;;6.40;;
21432;SDS011;18592;49.708;10.900;2024-03-02T07:20:04;8.82;;;6.57;;
21432;SDS011;18592;49.708;10.900;2024-03-02T07:22:21;7.80;;;6.10;;
21432;SDS011;18592;49.708;10.900;2024-03-02T07:24:22;7.43;;;6.28;;
21432;SDS011;18592;49.708;10.900;2024-03-02T07:26:23;8.50;;;6.28;;
21432;SDS011;18592;49.708;10.900;2024-03-02T07:28:23;8.43;;;6.43;;
21432;SDS011;18592;49.708;10.900;2024-03-02T07:30:24;7.38;;;6.22;;
21432;SDS011;18592;49.708;10.900;2024-03-02T07:32:24;10.57;;;8.25;;
21432;SDS011;18592;49.708;10.900;2024-03-02T07:34:24;8.80;;;7.30;;
21432;SDS011;18592;49.708;10.900;2024-03-02T07:36:36;6.95;;;5.63;;
21432;SDS011;18592;49.708;10.900;2024-03-02T07:38:39;9.18;;;7.43;;
21432;SDS011;18592;49.708;10.900;2024-03-02T07:40:40;9.98;;;7.22;;
21432;SDS011;18592;49.708;10.900;2024-03-02T07:53:34;7.03;;;5.80;;
21432;SDS011;18592;49.708;10.900;2024-03-02T07:55:36;7.75;;;5.75;;
21432;SDS011;18592;49.708;10.900;2024-03-02T07:57:36;7.30;;;5.30;;
21432;SDS011;18592;49.708;10.900;2024-03-02T07:59:38;6.47;;;5.07;;
21432;SDS011;18592;49.708;10.900;2024-03-02T08:01:39;7.78;;;5.32;;
21432;SDS011;18592;49.708;10.900;2024-03-02T08:03:39;7.28;;;5.35;;
21432;SDS011;18592;49.708;10.900;2024-03-02T08:05:40;6.53;;;4.90;;
21432;SDS011;18592;49.708;10.900;2024-03-02T08:07:40;6.55;;;5.32;;
21432;SDS011;18592;49.708;10.900;2024-03-02T08:09:41;6.45;;;5.35;;
21432;SDS011;18592;49.708;10.900;2024-03-02T08:11:42;7.32;;;6.18;;
21432;SDS011;18592;49.708;10.900;2024-03-02T08:13:44;11.27;;;7.53;;
21432;SDS011;18592;49.708;10.900;2024-03-02T08:15:44;10.43;;;6.30;;
21432;SDS011;18592;49.708;10.900;2024-03-02T08:17:45;7.55;;;6.10;;
21432;SDS011;18592;49.708;10.900;2024-03-02T08:19:48;8.07;;;6.60;;
21432;SDS011;18592;49.708;10.900;2024-03-02T08:21:53;8.00;;;6.47;;
21432;SDS011;18592;49.708;10.900;2024-03-02T08:23:56;9.38;;;6.90;;
21432;SDS011;18592;49.708;10.900;2024-03-02T08:26:02;7.93;;;6.43;;
21432;SDS011;18592;49.708;10.900;2024-03-02T08:28:03;10.30;;;7.22;;
21432;SDS011;18592;49.708;10.900;2024-03-02T08:30:04;9.57;;;7.38;;
21432;SDS011;18592;49.708;10.900;2024-03-02T08:32:06;11.35;;;8.27;;
21432;SDS011;18592;49.708;10.900;2024-03-02T08:34:07;10.75;;;7.22;;
21432;SDS011;18592;49.708;10.900;2024-03-02T08:36:07;10.27;;;6.35;;
21432;SDS011;18592;49.708;10.900;2024-03-02T08:38:09;8.23;;;6.07;;
21432;SDS011;18592;49.708;10.900;2024-03-02T08:40:10;9.80;;;6.82;;
21432;SDS011;18592;49.708;10.900;2024-03-02T08:42:24;9.13;;;6.18;;
21432;SDS011;18592;49.708;10.900;2024-03-02T08:44:25;9.68;;;6.30;;
21432;SDS011;18592;49.708;10.900;2024-03-02T08:46:26;9.77;;;7.03;;
21432;SDS011;18592;49.708;10.900;2024-03-02T08:48:26;9.20;;;6.32;;
21432;SDS011;18592;49.708;10.900;2024-03-02T08:50:27;8.63;;;6.38;;
21432;SDS011;18592;49.708;10.900;2024-03-02T08:52:27;9.38;;;6.97;;
21432;SDS011;18592;49.708;10.900;2024-03-02T08:54:28;10.30;;;7.25;;
21432;SDS011;18592;49.708;10.900;2024-03-02T08:56:28;9.77;;;7.57;;
21432;SDS011;18592;49.708;10.900;2024-03-02T08:58:28;10.10;;;7.28;;
21432;SDS011;18592;49.708;10.900;2024-03-02T09:00:29;9.90;;;6.72;;
21432;SDS011;18592;49.708;10.900;2024-03-02T09:02:29;11.23;;;8.07;;
21432;SDS011;18592;49.708;10.900;2024-03-02T09:04:30;11.52;;;7.28;;
21432;SDS011;18592;49.708;10.900;2024-03-02T09:06:30;9.40;;;6.85;;
21432;SDS011;18592;49.708;10.900;2024-03-02T09:08:32;8.25;;;6.75;;
21432;SDS011;18592;49.708;10.900;2024-03-02T09:10:32;11.40;;;7.45;;
21432;SDS011;18592;49.708;10.900;2024-03-02T09:12:33;11.68;;;8.05;;
21432;SDS011;18592;49.708;10.900;2024-03-02T09:14:34;14.40;;;7.65;;
21432;SDS011;18592;49.708;10.900;2024-03-02T09:16:35;14.85;;;8.35;;
21432;SDS011;18592;49.708;10.900;2024-03-02T09:18:35;15.60;;;8.30;;
21432;SDS011;18592;49.708;10.900;2024-03-02T09:20:51;13.88;;;8.63;;
21432;SDS011;18592;49.708;10.900;2024-03-02T09:22:53;18.00;;;9.45;;
21432;SDS011;18592;49.708;10.900;2024-03-02T09:24:53;16.70;;;9.25;;
21432;SDS011;18592;49.708;10.900;2024-03-02T09:26:54;17.42;;;9.05;;
21432;SDS011;18592;49.708;10.900;2024-03-02T09:29:09;14.80;;;8.23;;
21432;SDS011;18592;49.708;10.900;2024-03-02T09:31:20;14.07;;;8.57;;
21432;SDS011;18592;49.708;10.900;2024-03-02T09:33:21;15.27;;;9.25;;
21432;SDS011;18592;49.708;10.900;2024-03-02T09:35:21;14.35;;;8.88;;
21432;SDS011;18592;49.708;10.900;2024-03-02T09:37:21;14.48;;;8.80;;
21432;SDS011;18592;49.708;10.900;2024-03-02T09:39:22;14.07;;;8.50;;
21432;SDS011;18592;49.708;10.900;2024-03-02T09:41:33;13.77;;;7.97;;
21432;SDS011;18592;49.708;10.900;2024-03-02T09:43:34;13.70;;;8.20;;
21432;SDS011;18592;49.708;10.900;2024-03-02T09:45:35;13.02;;;8.02;;
21432;SDS011;18592;49.708;10.900;2024-03-02T09:47:36;12.57;;;8.27;;
21432;SDS011;18592;49.708;10.900;2024-03-02T09:49:36;13.48;;;8.63;;
21432;SDS011;18592;49.708;10.900;2024-03-02T09:51:37;12.13;;;8.45;;
21432;SDS011;18592;49.708;10.900;2024-03-02T09:53:37;10.60;;;7.72;;
21432;SDS011;18592;49.708;10.900;2024-03-02T09:55:38;11.05;;;7.45;;
21432;SDS011;18592;49.708;10.900;2024-03-02T09:57:55;10.95;;;7.30;;
21432;SDS011;18592;49.708;10.900;2024-03-02T09:59:56;11.15;;;7.20;;
21432;SDS011;18592;49.708;10.900;2024-03-02T10:02:02;9.93;;;6.80;;
21432;SDS011;18592;49.708;10.900;2024-03-02T10:04:03;10.30;;;6.85;;
21432;SDS011;18592;49.708;10.900;2024-03-02T10:06:24;9.60;;;6.80;;
21432;SDS011;18592;49.708;10.900;2024-03-02T10:08:25;9.05;;;5.70;;
21432;SDS011;18592;49.708;10.900;2024-03-02T10:10:26;8.95;;;6.18;;
21432;SDS011;18592;49.708;10.900;2024-03-02T10:12:35;9.30;;;6.07;;
21432;SDS011;18592;49.708;10.900;2024-03-02T10:14:35;8.70;;;5.85;;
21432;SDS011;18592;49.708;10.900;2024-03-02T10:18:52;8.32;;;5.70;;
21432;SDS011;18592;49.708;10.900;2024-03-02T10:20:52;10.10;;;6.03;;
21432;SDS011;18592;49.708;10.900;2024-03-02T10:22:53;8.13;;;5.53;;
21432;SDS011;18592;49.708;10.900;2024-03-02T10:24:53;7.95;;;5.35;;
21432;SDS011;18592;49.708;10.900;2024-03-02T10:26:54;8.15;;;5.55;;
21432;SDS011;18592;49.708;10.900;2024-03-02T10:28:56;10.98;;;5.50;;
21432;SDS011;18592;49.708;10.900;2024-03-02T10:30:59;8.32;;;5.70;;
21432;SDS011;18592;49.708;10.900;2024-03-02T10:33:02;9.95;;;5.13;;
21432;SDS011;18592;49.708;10.900;2024-03-02T10:35:03;9.73;;;5.10;;
21432;SDS011;18592;49.708;10.900;2024-03-02T10:37:06;11.90;;;5.57;;
21432;SDS011;18592;49.708;10.900;2024-03-02T10:39:09;9.15;;;5.20;;
21432;SDS011;18592;49.708;10.900;2024-03-02T10:41:10;12.25;;;5.50;;
21432;SDS011;18592;49.708;10.900;2024-03-02T10:43:11;11.95;;;4.88;;
21432;SDS011;18592;49.708;10.900;2024-03-02T10:45:22;11.05;;;5.50;;
21432;SDS011;18592;49.708;10.900;2024-03-02T10:47:23;8.18;;;5.05;;
21432;SDS011;18592;49.708;10.900;2024-03-02T10:49:27;12.07;;;5.80;;
21432;SDS011;18592;49.708;10.900;2024-03-02T10:51:29;8.95;;;5.18;;
21432;SDS011;18592;49.708;10.900;2024-03-02T10:53:33;11.30;;;5.10;;
21432;SDS011;18592;49.708;10.900;2024-03-02T10:55:34;9.27;;;5.03;;
21432;SDS011;18592;49.708;10.900;2024-03-02T10:58:07;13.73;;;4.88;;
21432;SDS011;18592;49.708;10.900;2024-03-02T11:00:05;8.15;;;4.47;;
21432;SDS011;18592;49.708;10.900;2024-03-02T11:02:07;9.57;;;4.63;;
21432;SDS011;18592;49.708;10.900;2024-03-02T11:04:12;8.98;;;5.00;;
21432;SDS011;18592;49.708;10.900;2024-03-02T11:06:15;8.25;;;4.65;;
21432;SDS011;18592;49.708;10.900;2024-03-02T11:08:16;10.38;;;5.30;;
21432;SDS011;18592;49.708;10.900;2024-03-02T11:10:25;14.77;;;6.78;;
21432;SDS011;18592;49.708;10.900;2024-03-02T11:12:29;13.50;;;7.07;;
21432;SDS011;18592;49.708;10.900;2024-03-02T11:14:37;11.02;;;6.65;;
21432;SDS011;18592;49.708;10.900;2024-03-02T11:16:58;14.10;;;7.75;;
21432;SDS011;18592;49.708;10.900;2024-03-02T11:19:05;13.68;;;8.02;;
21432;SDS011;18592;49.708;10.900;2024-03-02T11:21:07;12.43;;;7.22;;
21432;SDS011;18592;49.708;10.900;2024-03-02T11:23:31;11.57;;;7.32;;
21432;SDS011;18592;49.708;10.900;2024-03-02T11:25:33;13.20;;;7.20;;
21432;SDS011;18592;49.708;10.900;2024-03-02T11:29:48;14.27;;;6.90;;
21432;SDS011;18592;49.708;10.900;2024-03-02T11:31:58;13.20;;;7.55;;
21432;SDS011;18592;49.708;10.900;2024-03-02T11:34:17;11.25;;;6.65;;
21432;SDS011;18592;49.708;10.900;2024-03-02T11:47:19;15.20;;;8.10;;
21432;SDS011;18592;49.708;10.900;2024-03-02T11:49:42;12.75;;;7.10;;
21432;SDS011;18592;49.708;10.900;2024-03-02T11:51:50;18.02;;;7.88;;
21432;SDS011;18592;49.708;10.900;2024-03-02T11:54:00;12.27;;;7.55;;
21432;SDS011;18592;49.708;10.900;2024-03-02T11:56:03;12.95;;;7.28;;
21432;SDS011;18592;49.708;10.900;2024-03-02T11:58:05;12.43;;;7.10;;
21432;SDS011;18592;49.708;10.900;2024-03-02T12:00:25;14.00;;;7.93;;
21432;SDS011;18592;49.708;10.900;2024-03-02T12:02:26;14.38;;;7.95;;
21432;SDS011;18592;49.708;10.900;2024-03-02T12:04:30;15.18;;;8.60;;
21432;SDS011;18592;49.708;10.900;2024-03-02T12:06:31;14.00;;;7.85;;
21432;SDS011;18592;49.708;10.900;2024-03-02T12:08:31;13.98;;;7.35;;
21432;SDS011;18592;49.708;10.900;2024-03-02T12:21:12;8.13;;;5.65;;
21432;SDS011;18592;49.708;10.900;2024-03-02T12:23:12;8.90;;;5.70;;
21432;SDS011;18592;49.708;10.900;2024-03-02T12:25:13;8.82;;;5.53;;
21432;SDS011;18592;49.708;10.900;2024-03-02T12:27:30;10.15;;;5.65;;
21432;SDS011;18592;49.708;10.900;2024-03-02T12:29:31;9.65;;;5.80;;
21432;SDS011;18592;49.708;10.900;2024-03-02T12:31:31;9.05;;;5.45;;
21432;SDS011;18592;49.708;10.900;2024-03-02T12:33:32;8.88;;;5.55;;
21432;SDS011;18592;49.708;10.900;2024-03-02T12:35:32;8.55;;;5.43;;
21432;SDS011;18592;49.708;10.900;2024-03-02T12:37:37;8.23;;;5.10;;
21432;SDS011;18592;49.708;10.900;2024-03-02T12:39:44;8.43;;;5.15;;
21432;SDS011;18592;49.708;10.900;2024-03-02T12:52:34;6.78;;;4.97;;
21432;SDS011;18592;49.708;10.900;2024-03-02T12:54:36;6.15;;;4.95;;
21432;SDS011;18592;49.708;10.900;2024-03-02T12:57:00;7.30;;;5.07;;
21432;SDS011;18592;49.708;10.900;2024-03-02T12:59:21;6.53;;;5.50;;
21432;SDS011;18592;49.708;10.900;2024-03-02T13:01:27;5.05;;;4.55;;
21432;SDS011;18592;49.708;10.900;2024-03-02T13:03:28;6.53;;;4.80;;
21432;SDS011;18592;49.708;10.900;2024-03-02T13:05:42;6.05;;;4.78;;
21432;SDS011;18592;49.708;10.900;2024-03-02T13:07:44;5.13;;;4.25;;
21432;SDS011;18592;49.708;10.900;2024-03-02T13:10:01;6.65;;;4.25;;
21432;SDS011;18592;49.708;10.900;2024-03-02T13:12:03;8.90;;;5.45;;
21432;SDS011;18592;49.708;10.900;2024-03-02T13:14:17;11.20;;;6.38;;
21432;SDS011;18592;49.708;10.900;2024-03-02T13:26:58;12.45;;;7.47;;
21432;SDS011;18592;49.708;10.900;2024-03-02T13:29:01;14.80;;;7.30;;
21432;SDS011;18592;49.708;10.900;2024-03-02T13:31:12;12.15;;;7.60;;
21432;SDS011;18592;49.708;10.900;2024-03-02T13:33:13;10.07;;;7.00;;